sensor_id;sensor_type;location;lat;lon;timestamp;temperature;humidity
21830;DHT22;11077;50.264;6.798;2022-12-20T00:02:07;7.80;99.90
21830;DHT22;11077;50.264;6.798;2022-12-20T00:04:34;7.80;99.90
21830;DHT22;11077;50.264;6.798;2022-12-20T00:07:01;7.70;99.90
21830;DHT22;11077;50.264;6.798;2022-12-20T00:09:30;7.70;99.90
21830;DHT22;11077;50.264;6.798;2022-12-20T00:11:57;7.70;99.90
21830;DHT22;11077;50.264;6.798;2022-12-20T00:14:24;7.70;99.90
21830;DHT22;11077;50.264;6.798;2022-12-20T00:16:51;7.70;99.90
21830;DHT22;11077;50.264;6.798;2022-12-20T00:19:19;7.70;99.90
21830;DHT22;11077;50.264;6.798;2022-12-20T00:21:46;7.70;99.90
21830;DHT22;11077;50.264;6.798;2022-12-20T00:24:13;7.70;99.90
21830;DHT22;11077;50.264;6.798;2022-12-20T00:26:42;7.70;99.90
21830;DHT22;11077;50.264;6.798;2022-12-20T00:29:09;7.70;99.90
21830;DHT22;11077;50.264;6.798;2022-12-20T00:31:36;7.70;99.90
21830;DHT22;11077;50.264;6.798;2022-12-20T00:34:03;7.70;99.90
21830;DHT22;11077;50.264;6.798;2022-12-20T00:36:31;7.70;99.90
21830;DHT22;11077;50.264;6.798;2022-12-20T00:38:59;7.70;99.90
21830;DHT22;11077;50.264;6.798;2022-12-20T00:41:28;7.60;99.90
21830;DHT22;11077;50.264;6.798;2022-12-20T00:43:57;7.60;99.90
21830;DHT22;11077;50.264;6.798;2022-12-20T00:46:25;7.50;99.90
21830;DHT22;11077;50.264;6.798;2022-12-20T00:48:53;7.50;99.90
21830;DHT22;11077;50.264;6.798;2022-12-20T00:51:23;7.50;99.90
21830;DHT22;11077;50.264;6.798;2022-12-20T00:53:51;7.50;99.90
21830;DHT22;11077;50.264;6.798;2022-12-20T00:56:19;7.50;99.90
21830;DHT22;11077;50.264;6.798;2022-12-20T00:58:46;7.50;99.90
21830;DHT22;11077;50.264;6.798;2022-12-20T01:01:18;7.50;99.90
21830;DHT22;11077;50.264;6.798;2022-12-20T01:03:47;7.50;99.90
21830;DHT22;11077;50.264;6.798;2022-12-20T01:06:15;7.60;99.90
21830;DHT22;11077;50.264;6.798;2022-12-20T01:08:43;7.60;99.90
21830;DHT22;11077;50.264;6.798;2022-12-20T01:11:12;7.60;99.90
21830;DHT22;11077;50.264;6.798;2022-12-20T01:13:43;7.60;99.90
21830;DHT22;11077;50.264;6.798;2022-12-20T01:16:13;7.60;99.90
21830;DHT22;11077;50.264;6.798;2022-12-20T01:18:42;7.60;99.90
21830;DHT22;11077;50.264;6.798;2022-12-20T01:21:11;7.60;99.90
21830;DHT22;11077;50.264;6.798;2022-12-20T01:23:39;7.60;99.90
21830;DHT22;11077;50.264;6.798;2022-12-20T01:26:10;7.60;99.90
21830;DHT22;11077;50.264;6.798;2022-12-20T01:28:40;7.60;99.90
21830;DHT22;11077;50.264;6.798;2022-12-20T01:31:09;7.60;99.90
21830;DHT22;11077;50.264;6.798;2022-12-20T01:33:37;7.60;99.90
21830;DHT22;11077;50.264;6.798;2022-12-20T01:36:07;7.60;99.90
21830;DHT22;11077;50.264;6.798;2022-12-20T01:38:36;7.60;99.90
21830;DHT22;11077;50.264;6.798;2022-12-20T01:41:04;7.60;99.90
21830;DHT22;11077;50.264;6.798;2022-12-20T01:43:45;7.60;99.90
21830;DHT22;11077;50.264;6.798;2022-12-20T01:46:14;7.60;99.90
21830;DHT22;11077;50.264;6.798;2022-12-20T01:48:43;7.60;99.90
21830;DHT22;11077;50.264;6.798;2022-12-20T01:51:13;7.60;99.90
21830;DHT22;11077;50.264;6.798;2022-12-20T01:53:41;7.60;99.90
21830;DHT22;11077;50.264;6.798;2022-12-20T01:56:10;7.60;99.90
21830;DHT22;11077;50.264;6.798;2022-12-20T01:58:37;7.60;99.90
21830;DHT22;11077;50.264;6.798;2022-12-20T02:01:06;7.60;99.90
21830;DHT22;11077;50.264;6.798;2022-12-20T02:03:33;7.60;99.90
21830;DHT22;11077;50.264;6.798;2022-12-20T02:06:15;7.60;99.90
21830;DHT22;11077;50.264;6.798;2022-12-20T02:08:43;7.50;99.90
21830;DHT22;11077;50.264;6.798;2022-12-20T02:14:04;7.50;99.90
21830;DHT22;11077;50.264;6.798;2022-12-20T02:16:40;7.60;99.90
21830;DHT22;11077;50.264;6.798;2022-12-20T02:19:34;7.50;99.90
21830;DHT22;11077;50.264;6.798;2022-12-20T02:22:15;7.50;99.90
21830;DHT22;11077;50.264;6.798;2022-12-20T02:25:13;7.60;99.90
21830;DHT22;11077;50.264;6.798;2022-12-20T02:27:54;7.60;99.90
21830;DHT22;11077;50.264;6.798;2022-12-20T02:30:26;7.60;99.90
21830;DHT22;11077;50.264;6.798;2022-12-20T02:32:58;7.60;99.90
21830;DHT22;11077;50.264;6.798;2022-12-20T02:35:28;7.70;99.90
21830;DHT22;11077;50.264;6.798;2022-12-20T02:38:01;7.70;99.90
21830;DHT22;11077;50.264;6.798;2022-12-20T02:40:32;7.70;99.90
21830;DHT22;11077;50.264;6.798;2022-12-20T02:43:03;7.70;99.90
21830;DHT22;11077;50.264;6.798;2022-12-20T02:45:53;7.70;99.90
21830;DHT22;11077;50.264;6.798;2022-12-20T02:48:21;7.70;99.90
21830;DHT22;11077;50.264;6.798;2022-12-20T02:50:52;7.70;99.90
21830;DHT22;11077;50.264;6.798;2022-12-20T02:53:20;7.70;99.90
21830;DHT22;11077;50.264;6.798;2022-12-20T02:55:52;7.70;99.90
21830;DHT22;11077;50.264;6.798;2022-12-20T02:58:25;7.70;99.90
21830;DHT22;11077;50.264;6.798;2022-12-20T03:01:00;7.70;99.90
21830;DHT22;11077;50.264;6.798;2022-12-20T03:03:30;7.70;99.90
21830;DHT22;11077;50.264;6.798;2022-12-20T03:05:58;7.70;99.90
21830;DHT22;11077;50.264;6.798;2022-12-20T03:08:25;7.70;99.90
21830;DHT22;11077;50.264;6.798;2022-12-20T03:10:53;7.80;99.90
21830;DHT22;11077;50.264;6.798;2022-12-20T03:13:22;7.70;99.90
21830;DHT22;11077;50.264;6.798;2022-12-20T03:15:55;7.80;99.90
21830;DHT22;11077;50.264;6.798;2022-12-20T03:18:24;7.80;99.90
21830;DHT22;11077;50.264;6.798;2022-12-20T03:20:52;7.70;99.90
21830;DHT22;11077;50.264;6.798;2022-12-20T03:23:19;7.70;99.90
21830;DHT22;11077;50.264;6.798;2022-12-20T03:25:48;7.70;99.90
21830;DHT22;11077;50.264;6.798;2022-12-20T03:28:24;7.80;99.90
21830;DHT22;11077;50.264;6.798;2022-12-20T03:30:52;7.70;99.90
21830;DHT22;11077;50.264;6.798;2022-12-20T03:33:19;7.80;99.90
21830;DHT22;11077;50.264;6.798;2022-12-20T03:35:48;7.80;99.90
21830;DHT22;11077;50.264;6.798;2022-12-20T03:38:17;7.80;99.90
21830;DHT22;11077;50.264;6.798;2022-12-20T03:40:44;7.70;99.90
21830;DHT22;11077;50.264;6.798;2022-12-20T03:43:16;7.70;99.90
21830;DHT22;11077;50.264;6.798;2022-12-20T03:45:43;7.70;99.90
21830;DHT22;11077;50.264;6.798;2022-12-20T03:48:10;7.70;99.90
21830;DHT22;11077;50.264;6.798;2022-12-20T03:50:37;7.70;99.90
21830;DHT22;11077;50.264;6.798;2022-12-20T03:53:06;7.60;99.90
21830;DHT22;11077;50.264;6.798;2022-12-20T03:55:33;7.70;99.90
21830;DHT22;11077;50.264;6.798;2022-12-20T03:58:01;7.70;99.90
21830;DHT22;11077;50.264;6.798;2022-12-20T04:00:35;7.70;99.90
21830;DHT22;11077;50.264;6.798;2022-12-20T04:03:22;7.80;99.90
21830;DHT22;11077;50.264;6.798;2022-12-20T04:05:49;7.80;99.90
21830;DHT22;11077;50.264;6.798;2022-12-20T04:08:18;7.80;99.90
21830;DHT22;11077;50.264;6.798;2022-12-20T04:10:47;7.90;99.90
21830;DHT22;11077;50.264;6.798;2022-12-20T04:13:34;7.80;99.90
21830;DHT22;11077;50.264;6.798;2022-12-20T04:16:03;7.80;99.90
21830;DHT22;11077;50.264;6.798;2022-12-20T04:18:32;7.80;99.90
21830;DHT22;11077;50.264;6.798;2022-12-20T04:21:00;7.80;99.90
21830;DHT22;11077;50.264;6.798;2022-12-20T04:23:31;7.90;99.90
21830;DHT22;11077;50.264;6.798;2022-12-20T04:25:59;7.90;99.90
21830;DHT22;11077;50.264;6.798;2022-12-20T04:28:28;7.80;99.90
21830;DHT22;11077;50.264;6.798;2022-12-20T04:30:56;7.80;99.90
21830;DHT22;11077;50.264;6.798;2022-12-20T04:33:27;7.80;99.90
21830;DHT22;11077;50.264;6.798;2022-12-20T04:35:55;7.80;99.90
21830;DHT22;11077;50.264;6.798;2022-12-20T04:38:23;7.80;99.90
21830;DHT22;11077;50.264;6.798;2022-12-20T04:40:54;7.80;99.90
21830;DHT22;11077;50.264;6.798;2022-12-20T04:43:23;7.80;99.90
21830;DHT22;11077;50.264;6.798;2022-12-20T04:45:55;7.90;99.90
21830;DHT22;11077;50.264;6.798;2022-12-20T04:48:25;7.90;99.90
21830;DHT22;11077;50.264;6.798;2022-12-20T04:50:54;7.90;99.90
21830;DHT22;11077;50.264;6.798;2022-12-20T04:53:23;7.90;99.90
21830;DHT22;11077;50.264;6.798;2022-12-20T04:56:10;7.90;99.90
21830;DHT22;11077;50.264;6.798;2022-12-20T04:58:37;7.90;99.90
21830;DHT22;11077;50.264;6.798;2022-12-20T05:01:08;7.90;99.90
21830;DHT22;11077;50.264;6.798;2022-12-20T05:03:43;8.00;99.90
21830;DHT22;11077;50.264;6.798;2022-12-20T05:06:11;7.90;99.90
21830;DHT22;11077;50.264;6.798;2022-12-20T05:08:39;8.00;99.90
21830;DHT22;11077;50.264;6.798;2022-12-20T05:11:07;8.00;99.90
21830;DHT22;11077;50.264;6.798;2022-12-20T05:13:36;8.00;99.90
21830;DHT22;11077;50.264;6.798;2022-12-20T05:16:05;8.00;99.90
21830;DHT22;11077;50.264;6.798;2022-12-20T05:18:34;8.00;99.90
21830;DHT22;11077;50.264;6.798;2022-12-20T05:21:05;8.00;99.90
21830;DHT22;11077;50.264;6.798;2022-12-20T05:23:51;8.00;99.90
21830;DHT22;11077;50.264;6.798;2022-12-20T05:26:49;8.00;99.90
21830;DHT22;11077;50.264;6.798;2022-12-20T05:29:19;8.00;99.90
21830;DHT22;11077;50.264;6.798;2022-12-20T05:31:46;8.00;99.90
21830;DHT22;11077;50.264;6.798;2022-12-20T05:34:15;8.00;99.90
21830;DHT22;11077;50.264;6.798;2022-12-20T05:36:47;8.00;99.90
21830;DHT22;11077;50.264;6.798;2022-12-20T05:39:15;8.00;99.90
21830;DHT22;11077;50.264;6.798;2022-12-20T05:41:44;7.90;99.90
21830;DHT22;11077;50.264;6.798;2022-12-20T05:44:12;8.00;99.90
21830;DHT22;11077;50.264;6.798;2022-12-20T05:46:44;8.00;99.90
21830;DHT22;11077;50.264;6.798;2022-12-20T05:49:17;7.90;99.90
21830;DHT22;11077;50.264;6.798;2022-12-20T05:51:45;7.90;99.90
21830;DHT22;11077;50.264;6.798;2022-12-20T05:54:20;7.90;99.90
21830;DHT22;11077;50.264;6.798;2022-12-20T05:56:53;7.90;99.90
21830;DHT22;11077;50.264;6.798;2022-12-20T05:59:27;7.90;99.90
21830;DHT22;11077;50.264;6.798;2022-12-20T06:01:55;7.90;99.90
21830;DHT22;11077;50.264;6.798;2022-12-20T06:04:23;7.90;99.90
21830;DHT22;11077;50.264;6.798;2022-12-20T06:06:51;7.90;99.90
21830;DHT22;11077;50.264;6.798;2022-12-20T06:09:19;7.90;99.90
21830;DHT22;11077;50.264;6.798;2022-12-20T06:11:59;7.90;99.90
21830;DHT22;11077;50.264;6.798;2022-12-20T06:14:28;7.90;99.90
21830;DHT22;11077;50.264;6.798;2022-12-20T06:16:58;7.90;99.90
21830;DHT22;11077;50.264;6.798;2022-12-20T06:19:25;7.90;99.90
21830;DHT22;11077;50.264;6.798;2022-12-20T06:21:55;8.00;99.90
21830;DHT22;11077;50.264;6.798;2022-12-20T06:24:30;8.00;99.90
21830;DHT22;11077;50.264;6.798;2022-12-20T06:26:58;8.00;99.90
21830;DHT22;11077;50.264;6.798;2022-12-20T06:29:28;8.00;99.90
21830;DHT22;11077;50.264;6.798;2022-12-20T06:32:05;8.00;99.90
21830;DHT22;11077;50.264;6.798;2022-12-20T06:34:32;8.00;99.90
21830;DHT22;11077;50.264;6.798;2022-12-20T06:37:00;8.00;99.90
21830;DHT22;11077;50.264;6.798;2022-12-20T06:39:31;8.00;99.90
21830;DHT22;11077;50.264;6.798;2022-12-20T06:42:02;8.00;99.90
21830;DHT22;11077;50.264;6.798;2022-12-20T06:44:29;8.00;99.90
21830;DHT22;11077;50.264;6.798;2022-12-20T06:46:57;8.00;99.90
21830;DHT22;11077;50.264;6.798;2022-12-20T06:49:25;8.00;99.90
21830;DHT22;11077;50.264;6.798;2022-12-20T06:51:53;8.00;99.90
21830;DHT22;11077;50.264;6.798;2022-12-20T06:54:26;8.00;99.90
21830;DHT22;11077;50.264;6.798;2022-12-20T06:56:53;7.90;99.90
21830;DHT22;11077;50.264;6.798;2022-12-20T06:59:20;8.00;99.90
21830;DHT22;11077;50.264;6.798;2022-12-20T07:01:47;7.90;99.90
21830;DHT22;11077;50.264;6.798;2022-12-20T07:04:14;7.90;99.90
21830;DHT22;11077;50.264;6.798;2022-12-20T07:06:43;7.90;99.90
21830;DHT22;11077;50.264;6.798;2022-12-20T07:09:10;7.80;99.90
21830;DHT22;11077;50.264;6.798;2022-12-20T07:11:37;7.90;99.90
21830;DHT22;11077;50.264;6.798;2022-12-20T07:14:05;7.90;99.90
21830;DHT22;11077;50.264;6.798;2022-12-20T07:16:32;7.90;99.90
21830;DHT22;11077;50.264;6.798;2022-12-20T07:18:59;7.90;99.90
21830;DHT22;11077;50.264;6.798;2022-12-20T07:21:26;7.90;99.90
21830;DHT22;11077;50.264;6.798;2022-12-20T07:23:55;7.90;99.90
21830;DHT22;11077;50.264;6.798;2022-12-20T07:26:22;7.90;99.90
21830;DHT22;11077;50.264;6.798;2022-12-20T07:28:50;7.90;99.90
21830;DHT22;11077;50.264;6.798;2022-12-20T07:31:17;7.90;99.90
21830;DHT22;11077;50.264;6.798;2022-12-20T07:33:44;7.90;99.90
21830;DHT22;11077;50.264;6.798;2022-12-20T07:36:13;7.90;99.90
21830;DHT22;11077;50.264;6.798;2022-12-20T07:38:41;7.90;99.90
21830;DHT22;11077;50.264;6.798;2022-12-20T07:41:11;7.80;99.90
21830;DHT22;11077;50.264;6.798;2022-12-20T07:43:39;7.90;99.90
21830;DHT22;11077;50.264;6.798;2022-12-20T07:46:07;7.90;99.90
21830;DHT22;11077;50.264;6.798;2022-12-20T07:48:34;7.90;99.90
21830;DHT22;11077;50.264;6.798;2022-12-20T07:51:05;7.90;99.90
21830;DHT22;11077;50.264;6.798;2022-12-20T07:53:38;7.90;99.90
21830;DHT22;11077;50.264;6.798;2022-12-20T07:56:07;7.90;99.90
21830;DHT22;11077;50.264;6.798;2022-12-20T07:58:39;8.00;99.90
21830;DHT22;11077;50.264;6.798;2022-12-20T08:01:07;8.00;99.90
21830;DHT22;11077;50.264;6.798;2022-12-20T08:03:38;8.00;99.90
21830;DHT22;11077;50.264;6.798;2022-12-20T08:06:07;7.90;99.90
21830;DHT22;11077;50.264;6.798;2022-12-20T08:08:37;8.00;99.90
21830;DHT22;11077;50.264;6.798;2022-12-20T08:11:07;8.00;99.90
21830;DHT22;11077;50.264;6.798;2022-12-20T08:13:36;8.00;99.90
21830;DHT22;11077;50.264;6.798;2022-12-20T08:16:05;8.00;99.90
21830;DHT22;11077;50.264;6.798;2022-12-20T08:18:32;8.00;99.90
21830;DHT22;11077;50.264;6.798;2022-12-20T08:21:00;8.10;99.90
21830;DHT22;11077;50.264;6.798;2022-12-20T08:23:27;8.10;99.90
21830;DHT22;11077;50.264;6.798;2022-12-20T08:25:54;8.10;99.90
21830;DHT22;11077;50.264;6.798;2022-12-20T08:28:22;8.10;99.90
21830;DHT22;11077;50.264;6.798;2022-12-20T08:30:51;8.10;99.90
21830;DHT22;11077;50.264;6.798;2022-12-20T08:33:19;8.10;99.90
21830;DHT22;11077;50.264;6.798;2022-12-20T08:35:46;8.10;99.90
21830;DHT22;11077;50.264;6.798;2022-12-20T08:38:13;8.20;99.90
21830;DHT22;11077;50.264;6.798;2022-12-20T08:40:40;8.20;99.90
21830;DHT22;11077;50.264;6.798;2022-12-20T08:43:08;8.20;99.90
21830;DHT22;11077;50.264;6.798;2022-12-20T08:45:35;8.20;99.90
21830;DHT22;11077;50.264;6.798;2022-12-20T08:48:04;8.20;99.90
21830;DHT22;11077;50.264;6.798;2022-12-20T08:50:31;8.20;99.90
21830;DHT22;11077;50.264;6.798;2022-12-20T08:52:58;8.20;99.90
21830;DHT22;11077;50.264;6.798;2022-12-20T08:55:25;8.20;99.90
21830;DHT22;11077;50.264;6.798;2022-12-20T08:57:53;8.30;99.90
21830;DHT22;11077;50.264;6.798;2022-12-20T09:00:20;8.30;99.90
21830;DHT22;11077;50.264;6.798;2022-12-20T09:02:47;8.30;99.90
21830;DHT22;11077;50.264;6.798;2022-12-20T09:05:17;8.30;99.90
21830;DHT22;11077;50.264;6.798;2022-12-20T09:07:45;8.30;99.90
21830;DHT22;11077;50.264;6.798;2022-12-20T09:10:12;8.30;99.90
21830;DHT22;11077;50.264;6.798;2022-12-20T09:12:39;8.30;99.90
21830;DHT22;11077;50.264;6.798;2022-12-20T09:15:08;8.30;99.90
21830;DHT22;11077;50.264;6.798;2022-12-20T09:17:36;8.30;99.90
21830;DHT22;11077;50.264;6.798;2022-12-20T09:20:04;8.40;99.90
21830;DHT22;11077;50.264;6.798;2022-12-20T09:22:33;8.40;99.90
21830;DHT22;11077;50.264;6.798;2022-12-20T09:25:01;8.40;99.90
21830;DHT22;11077;50.264;6.798;2022-12-20T09:27:28;8.40;99.90
21830;DHT22;11077;50.264;6.798;2022-12-20T09:29:55;8.40;99.90
21830;DHT22;11077;50.264;6.798;2022-12-20T09:32:22;8.40;99.90
21830;DHT22;11077;50.264;6.798;2022-12-20T09:34:50;8.40;99.90
21830;DHT22;11077;50.264;6.798;2022-12-20T09:37:17;8.40;99.90
21830;DHT22;11077;50.264;6.798;2022-12-20T09:39:47;8.50;99.90
21830;DHT22;11077;50.264;6.798;2022-12-20T09:42:17;8.50;99.90
21830;DHT22;11077;50.264;6.798;2022-12-20T09:44:45;8.50;99.90
21830;DHT22;11077;50.264;6.798;2022-12-20T09:47:15;8.60;99.90
21830;DHT22;11077;50.264;6.798;2022-12-20T09:49:47;8.60;99.90
21830;DHT22;11077;50.264;6.798;2022-12-20T09:52:32;8.60;99.90
21830;DHT22;11077;50.264;6.798;2022-12-20T09:55:16;8.60;99.90
21830;DHT22;11077;50.264;6.798;2022-12-20T09:57:57;8.70;99.90
21830;DHT22;11077;50.264;6.798;2022-12-20T10:00:34;8.70;99.90
21830;DHT22;11077;50.264;6.798;2022-12-20T10:03:02;8.80;99.90
21830;DHT22;11077;50.264;6.798;2022-12-20T10:05:35;8.90;99.90
21830;DHT22;11077;50.264;6.798;2022-12-20T10:08:09;9.00;99.90
21830;DHT22;11077;50.264;6.798;2022-12-20T10:10:51;9.00;99.90
21830;DHT22;11077;50.264;6.798;2022-12-20T10:13:29;9.00;99.90
21830;DHT22;11077;50.264;6.798;2022-12-20T10:16:06;9.10;99.90
21830;DHT22;11077;50.264;6.798;2022-12-20T10:18:47;9.10;99.90
21830;DHT22;11077;50.264;6.798;2022-12-20T10:21:24;9.10;99.90
21830;DHT22;11077;50.264;6.798;2022-12-20T10:23:58;9.10;99.90
21830;DHT22;11077;50.264;6.798;2022-12-20T10:26:28;9.10;99.90
21830;DHT22;11077;50.264;6.798;2022-12-20T10:28:56;9.10;99.90
21830;DHT22;11077;50.264;6.798;2022-12-20T10:31:23;9.10;99.90
21830;DHT22;11077;50.264;6.798;2022-12-20T10:33:51;9.10;99.90
21830;DHT22;11077;50.264;6.798;2022-12-20T10:36:20;9.10;99.90
21830;DHT22;11077;50.264;6.798;2022-12-20T10:38:51;9.10;99.90
21830;DHT22;11077;50.264;6.798;2022-12-20T10:41:19;9.10;99.90
21830;DHT22;11077;50.264;6.798;2022-12-20T10:43:51;9.10;99.90
21830;DHT22;11077;50.264;6.798;2022-12-20T10:46:20;9.10;99.90
21830;DHT22;11077;50.264;6.798;2022-12-20T10:48:48;9.10;99.90
21830;DHT22;11077;50.264;6.798;2022-12-20T10:51:17;9.20;99.90
21830;DHT22;11077;50.264;6.798;2022-12-20T10:53:56;9.20;99.90
21830;DHT22;11077;50.264;6.798;2022-12-20T10:56:25;9.20;99.90
21830;DHT22;11077;50.264;6.798;2022-12-20T10:58:59;9.20;99.90
21830;DHT22;11077;50.264;6.798;2022-12-20T11:01:29;9.30;99.90
21830;DHT22;11077;50.264;6.798;2022-12-20T11:03:59;9.30;99.90
21830;DHT22;11077;50.264;6.798;2022-12-20T11:06:29;9.30;99.90
21830;DHT22;11077;50.264;6.798;2022-12-20T11:09:23;9.30;99.90
21830;DHT22;11077;50.264;6.798;2022-12-20T11:12:02;9.40;99.90
21830;DHT22;11077;50.264;6.798;2022-12-20T11:14:34;9.30;99.90
21830;DHT22;11077;50.264;6.798;2022-12-20T11:17:06;9.40;99.90
21830;DHT22;11077;50.264;6.798;2022-12-20T11:19:57;9.40;99.90
21830;DHT22;11077;50.264;6.798;2022-12-20T11:22:37;9.40;99.90
21830;DHT22;11077;50.264;6.798;2022-12-20T11:25:19;9.40;99.90
21830;DHT22;11077;50.264;6.798;2022-12-20T11:27:57;9.40;99.90
21830;DHT22;11077;50.264;6.798;2022-12-20T11:30:32;9.40;99.90
21830;DHT22;11077;50.264;6.798;2022-12-20T11:33:36;9.40;99.90
21830;DHT22;11077;50.264;6.798;2022-12-20T11:36:09;9.40;99.90
21830;DHT22;11077;50.264;6.798;2022-12-20T11:38:43;9.50;99.90
21830;DHT22;11077;50.264;6.798;2022-12-20T11:41:20;9.50;99.90
21830;DHT22;11077;50.264;6.798;2022-12-20T11:44:01;9.50;99.90
21830;DHT22;11077;50.264;6.798;2022-12-20T11:46:46;9.50;99.90
21830;DHT22;11077;50.264;6.798;2022-12-20T11:49:46;9.50;99.90
21830;DHT22;11077;50.264;6.798;2022-12-20T11:52:21;9.50;99.90
21830;DHT22;11077;50.264;6.798;2022-12-20T11:54:56;9.50;99.90
21830;DHT22;11077;50.264;6.798;2022-12-20T11:57:27;9.50;99.90
21830;DHT22;11077;50.264;6.798;2022-12-20T11:59:57;9.50;99.90
21830;DHT22;11077;50.264;6.798;2022-12-20T12:02:33;9.60;99.90
21830;DHT22;11077;50.264;6.798;2022-12-20T12:05:05;9.60;99.90
21830;DHT22;11077;50.264;6.798;2022-12-20T12:07:34;9.60;99.90
21830;DHT22;11077;50.264;6.798;2022-12-20T12:10:05;9.60;99.90
21830;DHT22;11077;50.264;6.798;2022-12-20T12:12:42;9.60;99.90
21830;DHT22;11077;50.264;6.798;2022-12-20T12:15:26;9.60;99.90
21830;DHT22;11077;50.264;6.798;2022-12-20T12:18:01;9.60;99.90
21830;DHT22;11077;50.264;6.798;2022-12-20T12:20:35;9.60;99.90
21830;DHT22;11077;50.264;6.798;2022-12-20T12:23:13;9.60;99.90
21830;DHT22;11077;50.264;6.798;2022-12-20T12:25:42;9.60;99.90
21830;DHT22;11077;50.264;6.798;2022-12-20T12:28:11;9.70;99.90
21830;DHT22;11077;50.264;6.798;2022-12-20T12:30:45;9.60;99.90
21830;DHT22;11077;50.264;6.798;2022-12-20T12:33:17;9.60;99.90
21830;DHT22;11077;50.264;6.798;2022-12-20T12:36:00;9.70;99.90
21830;DHT22;11077;50.264;6.798;2022-12-20T12:38:50;9.70;99.90
21830;DHT22;11077;50.264;6.798;2022-12-20T12:41:39;9.80;99.90
21830;DHT22;11077;50.264;6.798;2022-12-20T12:44:38;9.70;99.90
21830;DHT22;11077;50.264;6.798;2022-12-20T12:47:13;9.80;99.90
21830;DHT22;11077;50.264;6.798;2022-12-20T12:49:47;9.80;99.90
21830;DHT22;11077;50.264;6.798;2022-12-20T12:52:28;9.80;99.90
21830;DHT22;11077;50.264;6.798;2022-12-20T12:54:56;9.90;99.90
21830;DHT22;11077;50.264;6.798;2022-12-20T12:57:24;9.90;99.90
21830;DHT22;11077;50.264;6.798;2022-12-20T12:59:51;9.90;99.90
21830;DHT22;11077;50.264;6.798;2022-12-20T13:02:33;9.90;99.90
21830;DHT22;11077;50.264;6.798;2022-12-20T13:05:30;9.90;99.90
21830;DHT22;11077;50.264;6.798;2022-12-20T13:07:57;10.00;99.90
21830;DHT22;11077;50.264;6.798;2022-12-20T13:13:32;10.00;99.90
21830;DHT22;11077;50.264;6.798;2022-12-20T13:16:11;10.00;99.90
21830;DHT22;11077;50.264;6.798;2022-12-20T13:19:09;10.00;99.90
21830;DHT22;11077;50.264;6.798;2022-12-20T13:21:40;10.00;99.90
21830;DHT22;11077;50.264;6.798;2022-12-20T13:24:53;9.90;99.90
21830;DHT22;11077;50.264;6.798;2022-12-20T13:33:23;9.90;99.90
21830;DHT22;11077;50.264;6.798;2022-12-20T13:36:02;9.80;99.90
21830;DHT22;11077;50.264;6.798;2022-12-20T13:38:50;9.90;99.90
21830;DHT22;11077;50.264;6.798;2022-12-20T13:41:27;9.90;99.90
21830;DHT22;11077;50.264;6.798;2022-12-20T13:43:58;9.90;99.90
21830;DHT22;11077;50.264;6.798;2022-12-20T13:46:30;9.90;99.90
21830;DHT22;11077;50.264;6.798;2022-12-20T13:49:03;9.90;99.90
21830;DHT22;11077;50.264;6.798;2022-12-20T13:51:31;9.90;99.90
21830;DHT22;11077;50.264;6.798;2022-12-20T13:54:01;9.90;99.90
21830;DHT22;11077;50.264;6.798;2022-12-20T13:56:34;9.90;99.90
21830;DHT22;11077;50.264;6.798;2022-12-20T13:59:07;9.90;99.90
21830;DHT22;11077;50.264;6.798;2022-12-20T14:01:46;9.90;99.90
21830;DHT22;11077;50.264;6.798;2022-12-20T14:04:14;9.90;99.90
21830;DHT22;11077;50.264;6.798;2022-12-20T14:06:42;9.80;99.90
21830;DHT22;11077;50.264;6.798;2022-12-20T14:09:27;9.80;99.90
21830;DHT22;11077;50.264;6.798;2022-12-20T14:12:02;9.80;99.90
21830;DHT22;11077;50.264;6.798;2022-12-20T14:14:30;9.80;99.90
21830;DHT22;11077;50.264;6.798;2022-12-20T14:17:14;9.80;99.90
21830;DHT22;11077;50.264;6.798;2022-12-20T14:19:42;9.80;99.90
21830;DHT22;11077;50.264;6.798;2022-12-20T14:22:10;9.70;99.90
21830;DHT22;11077;50.264;6.798;2022-12-20T14:24:40;9.70;99.90
21830;DHT22;11077;50.264;6.798;2022-12-20T14:27:11;9.70;99.90
21830;DHT22;11077;50.264;6.798;2022-12-20T14:29:44;9.70;99.90
21830;DHT22;11077;50.264;6.798;2022-12-20T14:32:17;9.70;99.90
21830;DHT22;11077;50.264;6.798;2022-12-20T14:34:45;9.70;99.90
21830;DHT22;11077;50.264;6.798;2022-12-20T14:37:25;9.70;99.90
21830;DHT22;11077;50.264;6.798;2022-12-20T14:40:02;9.70;99.90
21830;DHT22;11077;50.264;6.798;2022-12-20T14:42:33;9.60;99.90
21830;DHT22;11077;50.264;6.798;2022-12-20T14:45:14;9.60;99.90
21830;DHT22;11077;50.264;6.798;2022-12-20T14:47:48;9.60;99.90
21830;DHT22;11077;50.264;6.798;2022-12-20T14:50:19;9.60;99.90
21830;DHT22;11077;50.264;6.798;2022-12-20T14:52:47;9.60;99.90
21830;DHT22;11077;50.264;6.798;2022-12-20T14:55:17;9.50;99.90
21830;DHT22;11077;50.264;6.798;2022-12-20T14:57:47;9.50;99.90
21830;DHT22;11077;50.264;6.798;2022-12-20T15:00:21;9.60;99.90
21830;DHT22;11077;50.264;6.798;2022-12-20T15:02:51;9.50;99.90
21830;DHT22;11077;50.264;6.798;2022-12-20T15:05:45;9.50;99.90
21830;DHT22;11077;50.264;6.798;2022-12-20T15:08:15;9.50;99.90
21830;DHT22;11077;50.264;6.798;2022-12-20T15:10:54;9.50;99.90
21830;DHT22;11077;50.264;6.798;2022-12-20T15:13:26;9.50;99.90
21830;DHT22;11077;50.264;6.798;2022-12-20T15:15:54;9.50;99.90
21830;DHT22;11077;50.264;6.798;2022-12-20T15:18:22;9.50;99.90
21830;DHT22;11077;50.264;6.798;2022-12-20T15:20:59;9.50;99.90
21830;DHT22;11077;50.264;6.798;2022-12-20T15:23:28;9.50;99.90
21830;DHT22;11077;50.264;6.798;2022-12-20T15:25:57;9.50;99.90
21830;DHT22;11077;50.264;6.798;2022-12-20T15:28:26;9.50;99.90
21830;DHT22;11077;50.264;6.798;2022-12-20T15:30:53;9.50;99.90
21830;DHT22;11077;50.264;6.798;2022-12-20T15:33:23;9.50;99.90
21830;DHT22;11077;50.264;6.798;2022-12-20T15:35:51;9.40;99.90
21830;DHT22;11077;50.264;6.798;2022-12-20T15:38:21;9.40;99.90
21830;DHT22;11077;50.264;6.798;2022-12-20T15:40:50;9.40;99.90
21830;DHT22;11077;50.264;6.798;2022-12-20T15:43:21;9.40;99.90
21830;DHT22;11077;50.264;6.798;2022-12-20T15:45:51;9.40;99.90
21830;DHT22;11077;50.264;6.798;2022-12-20T15:48:21;9.40;99.90
21830;DHT22;11077;50.264;6.798;2022-12-20T15:50:50;9.40;99.90
21830;DHT22;11077;50.264;6.798;2022-12-20T15:53:22;9.40;99.90
21830;DHT22;11077;50.264;6.798;2022-12-20T15:55:53;9.30;99.90
21830;DHT22;11077;50.264;6.798;2022-12-20T15:58:23;9.30;99.90
21830;DHT22;11077;50.264;6.798;2022-12-20T16:00:53;9.40;99.90
21830;DHT22;11077;50.264;6.798;2022-12-20T16:03:22;9.40;99.90
21830;DHT22;11077;50.264;6.798;2022-12-20T16:05:50;9.40;99.90
21830;DHT22;11077;50.264;6.798;2022-12-20T16:08:17;9.40;99.90
21830;DHT22;11077;50.264;6.798;2022-12-20T16:10:45;9.40;99.90
21830;DHT22;11077;50.264;6.798;2022-12-20T16:13:19;9.40;99.90
21830;DHT22;11077;50.264;6.798;2022-12-20T16:15:48;9.40;99.90
21830;DHT22;11077;50.264;6.798;2022-12-20T16:18:16;9.40;99.90
21830;DHT22;11077;50.264;6.798;2022-12-20T16:20:43;9.40;99.90
21830;DHT22;11077;50.264;6.798;2022-12-20T16:23:15;9.40;99.90
21830;DHT22;11077;50.264;6.798;2022-12-20T16:25:44;9.40;99.90